sim
Sign-in with your pilot id or email,
or register
Callsign
Passwort

Schedule Details

Flight Number: EWG2682 (3)
Departure: Stuttgart Airport (EDDS) at 11:30
Arrival: Thessaloniki International Airport (LGTS) at 13:50
Route: Eurowings Passenger Schedule. Enter filed route here before submitting Pirep.

Weather Information
Getting current METAR information for EDDS 211550Z 01004KT 350V050 9999 FEW042 12/05 Q1027 NOSIG
Getting current METAR information for LGTS 211550Z 35005KT CAVOK 14/00 Q1021 NOSIG

Schedule Frequency

Route Map